sensor_id;sensor_type;location;lat;lon;timestamp;P1;durP1;ratioP1;P2;durP2;ratioP2
16640;SDS011;8434;47.990;7.880;2022-11-15T00:00:12;3.43;;;2.77;;
16640;SDS011;8434;47.990;7.880;2022-11-15T00:02:57;2.33;;;2.13;;
16640;SDS011;8434;47.990;7.880;2022-11-15T00:05:44;3.63;;;2.30;;
16640;SDS011;8434;47.990;7.880;2022-11-15T00:08:29;8.43;;;3.10;;
16640;SDS011;8434;47.990;7.880;2022-11-15T00:11:15;3.40;;;2.60;;
16640;SDS011;8434;47.990;7.880;2022-11-15T00:14:00;5.80;;;2.83;;
16640;SDS011;8434;47.990;7.880;2022-11-15T00:16:46;6.17;;;2.73;;
16640;SDS011;8434;47.990;7.880;2022-11-15T00:19:31;3.63;;;2.63;;
16640;SDS011;8434;47.990;7.880;2022-11-15T00:22:18;2.90;;;2.60;;
16640;SDS011;8434;47.990;7.880;2022-11-15T00:25:03;4.10;;;2.60;;
16640;SDS011;8434;47.990;7.880;2022-11-15T00:27:55;4.27;;;2.80;;
16640;SDS011;8434;47.990;7.880;2022-11-15T00:30:40;5.83;;;2.67;;
16640;SDS011;8434;47.990;7.880;2022-11-15T00:33:25;4.70;;;2.50;;
16640;SDS011;8434;47.990;7.880;2022-11-15T00:36:10;3.90;;;2.57;;
16640;SDS011;8434;47.990;7.880;2022-11-15T00:38:56;3.27;;;2.97;;
16640;SDS011;8434;47.990;7.880;2022-11-15T00:41:41;5.17;;;3.10;;
16640;SDS011;8434;47.990;7.880;2022-11-15T00:44:26;3.93;;;2.80;;
16640;SDS011;8434;47.990;7.880;2022-11-15T00:47:11;3.03;;;2.60;;
16640;SDS011;8434;47.990;7.880;2022-11-15T00:49:56;3.90;;;2.47;;
16640;SDS011;8434;47.990;7.880;2022-11-15T00:52:41;3.00;;;2.20;;
16640;SDS011;8434;47.990;7.880;2022-11-15T00:55:27;2.47;;;2.20;;
16640;SDS011;8434;47.990;7.880;2022-11-15T00:58:12;4.70;;;3.20;;
16640;SDS011;8434;47.990;7.880;2022-11-15T01:00:59;3.60;;;2.57;;
16640;SDS011;8434;47.990;7.880;2022-11-15T01:03:49;4.53;;;2.47;;
16640;SDS011;8434;47.990;7.880;2022-11-15T01:06:34;3.13;;;2.83;;
16640;SDS011;8434;47.990;7.880;2022-11-15T01:09:19;4.13;;;2.50;;
16640;SDS011;8434;47.990;7.880;2022-11-15T01:12:05;4.13;;;2.20;;
16640;SDS011;8434;47.990;7.880;2022-11-15T01:14:50;5.07;;;3.10;;
16640;SDS011;8434;47.990;7.880;2022-11-15T01:17:35;3.90;;;2.53;;
16640;SDS011;8434;47.990;7.880;2022-11-15T01:20:20;4.50;;;2.20;;
16640;SDS011;8434;47.990;7.880;2022-11-15T01:23:05;4.30;;;1.93;;
16640;SDS011;8434;47.990;7.880;2022-11-15T01:25:50;4.27;;;2.17;;
16640;SDS011;8434;47.990;7.880;2022-11-15T01:28:37;7.77;;;2.00;;
16640;SDS011;8434;47.990;7.880;2022-11-15T01:31:23;4.07;;;2.00;;
16640;SDS011;8434;47.990;7.880;2022-11-15T01:34:07;2.63;;;2.27;;
16640;SDS011;8434;47.990;7.880;2022-11-15T01:36:52;4.37;;;2.27;;
16640;SDS011;8434;47.990;7.880;2022-11-15T01:39:37;2.90;;;2.13;;
16640;SDS011;8434;47.990;7.880;2022-11-15T01:42:22;2.00;;;1.80;;
16640;SDS011;8434;47.990;7.880;2022-11-15T01:45:09;2.90;;;2.07;;
16640;SDS011;8434;47.990;7.880;2022-11-15T01:47:58;2.20;;;1.73;;
16640;SDS011;8434;47.990;7.880;2022-11-15T01:50:43;3.20;;;1.60;;
16640;SDS011;8434;47.990;7.880;2022-11-15T01:53:28;2.50;;;2.30;;
16640;SDS011;8434;47.990;7.880;2022-11-15T01:56:15;3.57;;;2.47;;
16640;SDS011;8434;47.990;7.880;2022-11-15T01:59:02;2.37;;;2.13;;
16640;SDS011;8434;47.990;7.880;2022-11-15T02:01:49;2.40;;;1.83;;
16640;SDS011;8434;47.990;7.880;2022-11-15T02:04:35;3.80;;;1.90;;
16640;SDS011;8434;47.990;7.880;2022-11-15T02:07:22;2.57;;;1.93;;
16640;SDS011;8434;47.990;7.880;2022-11-15T02:10:08;3.97;;;1.70;;
16640;SDS011;8434;47.990;7.880;2022-11-15T02:12:53;2.33;;;2.00;;
16640;SDS011;8434;47.990;7.880;2022-11-15T02:15:40;2.07;;;1.70;;
16640;SDS011;8434;47.990;7.880;2022-11-15T02:18:32;5.57;;;2.00;;
16640;SDS011;8434;47.990;7.880;2022-11-15T02:21:19;2.60;;;1.83;;
16640;SDS011;8434;47.990;7.880;2022-11-15T02:27:24;5.43;;;1.37;;
16640;SDS011;8434;47.990;7.880;2022-11-15T02:30:19;5.03;;;1.43;;
16640;SDS011;8434;47.990;7.880;2022-11-15T02:33:07;1.60;;;1.20;;
16640;SDS011;8434;47.990;7.880;2022-11-15T02:35:57;1.30;;;1.20;;
16640;SDS011;8434;47.990;7.880;2022-11-15T02:38:43;1.30;;;1.20;;
16640;SDS011;8434;47.990;7.880;2022-11-15T02:41:33;1.80;;;1.10;;
16640;SDS011;8434;47.990;7.880;2022-11-15T02:44:21;1.67;;;1.20;;
16640;SDS011;8434;47.990;7.880;2022-11-15T02:47:09;1.40;;;1.10;;
16640;SDS011;8434;47.990;7.880;2022-11-15T02:50:00;5.93;;;1.67;;
16640;SDS011;8434;47.990;7.880;2022-11-15T02:52:46;2.20;;;1.70;;
16640;SDS011;8434;47.990;7.880;2022-11-15T02:55:32;2.33;;;1.30;;
16640;SDS011;8434;47.990;7.880;2022-11-15T02:58:22;2.63;;;1.10;;
16640;SDS011;8434;47.990;7.880;2022-11-15T03:01:11;1.83;;;1.30;;
16640;SDS011;8434;47.990;7.880;2022-11-15T03:04:02;1.33;;;1.23;;
16640;SDS011;8434;47.990;7.880;2022-11-15T03:06:53;1.57;;;1.37;;
16640;SDS011;8434;47.990;7.880;2022-11-15T03:09:42;3.80;;;1.30;;
16640;SDS011;8434;47.990;7.880;2022-11-15T03:12:34;1.70;;;1.30;;
16640;SDS011;8434;47.990;7.880;2022-11-15T03:15:21;1.43;;;1.20;;
16640;SDS011;8434;47.990;7.880;2022-11-15T03:18:10;3.10;;;1.50;;
16640;SDS011;8434;47.990;7.880;2022-11-15T03:20:59;1.57;;;1.30;;
16640;SDS011;8434;47.990;7.880;2022-11-15T03:23:45;2.73;;;1.83;;
16640;SDS011;8434;47.990;7.880;2022-11-15T03:26:32;4.23;;;1.50;;
16640;SDS011;8434;47.990;7.880;2022-11-15T03:29:19;2.30;;;1.40;;
16640;SDS011;8434;47.990;7.880;2022-11-15T03:32:07;2.07;;;1.80;;
16640;SDS011;8434;47.990;7.880;2022-11-15T03:34:56;2.07;;;1.57;;
16640;SDS011;8434;47.990;7.880;2022-11-15T03:37:44;2.80;;;1.40;;
16640;SDS011;8434;47.990;7.880;2022-11-15T03:40:31;2.20;;;1.90;;
16640;SDS011;8434;47.990;7.880;2022-11-15T03:43:22;1.60;;;1.50;;
16640;SDS011;8434;47.990;7.880;2022-11-15T03:46:11;1.77;;;1.50;;
16640;SDS011;8434;47.990;7.880;2022-11-15T03:48:58;1.77;;;1.60;;
16640;SDS011;8434;47.990;7.880;2022-11-15T03:51:44;1.23;;;1.13;;
16640;SDS011;8434;47.990;7.880;2022-11-15T03:54:31;1.37;;;1.20;;
16640;SDS011;8434;47.990;7.880;2022-11-15T03:57:16;2.23;;;1.27;;
16640;SDS011;8434;47.990;7.880;2022-11-15T04:00:02;1.30;;;1.20;;
16640;SDS011;8434;47.990;7.880;2022-11-15T04:02:47;2.80;;;1.50;;
16640;SDS011;8434;47.990;7.880;2022-11-15T04:05:33;1.77;;;1.37;;
16640;SDS011;8434;47.990;7.880;2022-11-15T04:08:17;1.87;;;1.60;;
16640;SDS011;8434;47.990;7.880;2022-11-15T04:11:04;2.63;;;1.60;;
16640;SDS011;8434;47.990;7.880;2022-11-15T04:13:49;1.50;;;1.27;;
16640;SDS011;8434;47.990;7.880;2022-11-15T04:16:34;2.20;;;1.50;;
16640;SDS011;8434;47.990;7.880;2022-11-15T04:19:19;2.50;;;1.60;;
16640;SDS011;8434;47.990;7.880;2022-11-15T04:22:22;1.70;;;1.47;;
16640;SDS011;8434;47.990;7.880;2022-11-15T04:25:25;3.00;;;1.40;;
16640;SDS011;8434;47.990;7.880;2022-11-15T04:28:11;1.47;;;1.33;;
16640;SDS011;8434;47.990;7.880;2022-11-15T04:30:56;4.27;;;1.70;;
16640;SDS011;8434;47.990;7.880;2022-11-15T04:33:41;3.10;;;1.47;;
16640;SDS011;8434;47.990;7.880;2022-11-15T04:36:26;2.10;;;1.47;;
16640;SDS011;8434;47.990;7.880;2022-11-15T04:39:31;2.57;;;1.83;;
16640;SDS011;8434;47.990;7.880;2022-11-15T04:42:16;3.93;;;1.83;;
16640;SDS011;8434;47.990;7.880;2022-11-15T04:45:03;3.00;;;1.97;;
16640;SDS011;8434;47.990;7.880;2022-11-15T04:47:48;3.77;;;1.87;;
16640;SDS011;8434;47.990;7.880;2022-11-15T04:50:33;2.53;;;1.70;;
16640;SDS011;8434;47.990;7.880;2022-11-15T04:53:17;2.40;;;1.77;;
16640;SDS011;8434;47.990;7.880;2022-11-15T04:56:02;3.87;;;2.50;;
16640;SDS011;8434;47.990;7.880;2022-11-15T04:58:48;4.30;;;2.73;;
16640;SDS011;8434;47.990;7.880;2022-11-15T05:01:34;3.10;;;2.43;;
16640;SDS011;8434;47.990;7.880;2022-11-15T05:04:19;4.47;;;1.70;;
16640;SDS011;8434;47.990;7.880;2022-11-15T05:07:03;3.97;;;1.97;;
16640;SDS011;8434;47.990;7.880;2022-11-15T05:09:48;3.00;;;2.03;;
16640;SDS011;8434;47.990;7.880;2022-11-15T05:12:33;2.17;;;1.87;;
16640;SDS011;8434;47.990;7.880;2022-11-15T05:15:18;10.97;;;3.13;;
16640;SDS011;8434;47.990;7.880;2022-11-15T05:18:04;5.27;;;2.33;;
16640;SDS011;8434;47.990;7.880;2022-11-15T05:20:49;3.00;;;2.70;;
16640;SDS011;8434;47.990;7.880;2022-11-15T05:23:34;4.10;;;2.80;;
16640;SDS011;8434;47.990;7.880;2022-11-15T05:26:19;4.27;;;2.80;;
16640;SDS011;8434;47.990;7.880;2022-11-15T05:29:04;4.67;;;3.10;;
16640;SDS011;8434;47.990;7.880;2022-11-15T05:31:49;3.77;;;2.40;;
16640;SDS011;8434;47.990;7.880;2022-11-15T05:34:36;3.30;;;2.60;;
16640;SDS011;8434;47.990;7.880;2022-11-15T05:37:21;4.93;;;3.47;;
16640;SDS011;8434;47.990;7.880;2022-11-15T05:40:06;6.97;;;2.97;;
16640;SDS011;8434;47.990;7.880;2022-11-15T05:42:51;5.40;;;3.50;;
16640;SDS011;8434;47.990;7.880;2022-11-15T05:45:36;4.30;;;3.73;;
16640;SDS011;8434;47.990;7.880;2022-11-15T05:48:21;5.90;;;3.07;;
16640;SDS011;8434;47.990;7.880;2022-11-15T05:51:08;3.90;;;3.40;;
16640;SDS011;8434;47.990;7.880;2022-11-15T05:53:53;3.77;;;2.90;;
16640;SDS011;8434;47.990;7.880;2022-11-15T05:56:40;7.70;;;3.07;;
16640;SDS011;8434;47.990;7.880;2022-11-15T05:59:25;4.40;;;2.43;;
16640;SDS011;8434;47.990;7.880;2022-11-15T06:02:10;3.30;;;3.00;;
16640;SDS011;8434;47.990;7.880;2022-11-15T06:04:56;3.77;;;2.63;;
16640;SDS011;8434;47.990;7.880;2022-11-15T06:07:42;6.40;;;3.03;;
16640;SDS011;8434;47.990;7.880;2022-11-15T06:10:28;3.43;;;2.80;;
16640;SDS011;8434;47.990;7.880;2022-11-15T06:13:13;3.70;;;2.30;;
16640;SDS011;8434;47.990;7.880;2022-11-15T06:15:57;9.33;;;3.00;;
16640;SDS011;8434;47.990;7.880;2022-11-15T06:18:42;3.30;;;2.73;;
16640;SDS011;8434;47.990;7.880;2022-11-15T06:21:27;3.37;;;2.67;;
16640;SDS011;8434;47.990;7.880;2022-11-15T06:24:14;3.67;;;3.03;;
16640;SDS011;8434;47.990;7.880;2022-11-15T06:26:59;3.33;;;2.60;;
16640;SDS011;8434;47.990;7.880;2022-11-15T06:29:44;4.83;;;2.70;;
16640;SDS011;8434;47.990;7.880;2022-11-15T06:32:29;3.57;;;2.43;;
16640;SDS011;8434;47.990;7.880;2022-11-15T06:35:14;3.70;;;2.73;;
16640;SDS011;8434;47.990;7.880;2022-11-15T06:38:01;4.77;;;3.00;;
16640;SDS011;8434;47.990;7.880;2022-11-15T06:40:48;4.30;;;3.20;;
16640;SDS011;8434;47.990;7.880;2022-11-15T06:43:33;5.23;;;3.10;;
16640;SDS011;8434;47.990;7.880;2022-11-15T06:46:18;3.37;;;3.07;;
16640;SDS011;8434;47.990;7.880;2022-11-15T06:49:03;3.80;;;3.27;;
16640;SDS011;8434;47.990;7.880;2022-11-15T06:51:48;5.40;;;3.37;;
16640;SDS011;8434;47.990;7.880;2022-11-15T06:54:33;4.53;;;3.60;;
16640;SDS011;8434;47.990;7.880;2022-11-15T06:57:19;5.57;;;4.00;;
16640;SDS011;8434;47.990;7.880;2022-11-15T07:00:04;6.07;;;4.23;;
16640;SDS011;8434;47.990;7.880;2022-11-15T07:02:49;5.37;;;3.93;;
16640;SDS011;8434;47.990;7.880;2022-11-15T07:05:35;5.00;;;3.50;;
16640;SDS011;8434;47.990;7.880;2022-11-15T07:08:20;5.60;;;3.90;;
16640;SDS011;8434;47.990;7.880;2022-11-15T07:11:06;5.67;;;3.93;;
16640;SDS011;8434;47.990;7.880;2022-11-15T07:13:52;5.00;;;4.37;;
16640;SDS011;8434;47.990;7.880;2022-11-15T07:16:37;5.17;;;4.30;;
16640;SDS011;8434;47.990;7.880;2022-11-15T07:19:22;4.83;;;3.70;;
16640;SDS011;8434;47.990;7.880;2022-11-15T07:22:07;3.93;;;3.10;;
16640;SDS011;8434;47.990;7.880;2022-11-15T07:24:52;3.27;;;2.67;;
16640;SDS011;8434;47.990;7.880;2022-11-15T07:27:37;3.47;;;2.43;;
16640;SDS011;8434;47.990;7.880;2022-11-15T07:30:24;5.33;;;3.10;;
16640;SDS011;8434;47.990;7.880;2022-11-15T07:33:09;4.57;;;3.40;;
16640;SDS011;8434;47.990;7.880;2022-11-15T07:35:53;4.50;;;3.23;;
16640;SDS011;8434;47.990;7.880;2022-11-15T07:38:38;3.73;;;3.13;;
16640;SDS011;8434;47.990;7.880;2022-11-15T07:41:23;3.30;;;3.00;;
16640;SDS011;8434;47.990;7.880;2022-11-15T07:44:08;5.10;;;3.43;;
16640;SDS011;8434;47.990;7.880;2022-11-15T07:46:54;5.40;;;4.27;;
16640;SDS011;8434;47.990;7.880;2022-11-15T07:49:39;5.93;;;4.10;;
16640;SDS011;8434;47.990;7.880;2022-11-15T07:52:24;6.83;;;4.73;;
16640;SDS011;8434;47.990;7.880;2022-11-15T07:55:09;7.37;;;4.00;;
16640;SDS011;8434;47.990;7.880;2022-11-15T07:57:59;4.50;;;3.20;;
16640;SDS011;8434;47.990;7.880;2022-11-15T08:00:44;4.47;;;2.93;;
16640;SDS011;8434;47.990;7.880;2022-11-15T08:03:31;3.73;;;3.33;;
16640;SDS011;8434;47.990;7.880;2022-11-15T08:06:16;5.43;;;3.03;;
16640;SDS011;8434;47.990;7.880;2022-11-15T08:09:01;4.27;;;3.23;;
16640;SDS011;8434;47.990;7.880;2022-11-15T08:11:46;4.00;;;3.07;;
16640;SDS011;8434;47.990;7.880;2022-11-15T08:14:31;4.87;;;3.37;;
16640;SDS011;8434;47.990;7.880;2022-11-15T08:17:16;4.97;;;3.17;;
16640;SDS011;8434;47.990;7.880;2022-11-15T08:20:02;6.17;;;3.40;;
16640;SDS011;8434;47.990;7.880;2022-11-15T08:22:47;5.10;;;3.80;;
16640;SDS011;8434;47.990;7.880;2022-11-15T08:25:32;5.90;;;3.80;;
16640;SDS011;8434;47.990;7.880;2022-11-15T08:28:17;6.80;;;4.27;;
16640;SDS011;8434;47.990;7.880;2022-11-15T08:31:03;4.27;;;3.67;;
16640;SDS011;8434;47.990;7.880;2022-11-15T08:33:48;6.23;;;4.40;;
16640;SDS011;8434;47.990;7.880;2022-11-15T08:36:34;4.87;;;3.50;;
16640;SDS011;8434;47.990;7.880;2022-11-15T08:39:19;7.13;;;4.50;;
16640;SDS011;8434;47.990;7.880;2022-11-15T08:42:04;8.00;;;4.53;;
16640;SDS011;8434;47.990;7.880;2022-11-15T08:44:49;6.10;;;4.07;;
16640;SDS011;8434;47.990;7.880;2022-11-15T08:47:34;3.53;;;3.00;;
16640;SDS011;8434;47.990;7.880;2022-11-15T08:50:18;3.47;;;2.73;;
16640;SDS011;8434;47.990;7.880;2022-11-15T08:53:05;3.43;;;3.13;;
16640;SDS011;8434;47.990;7.880;2022-11-15T08:55:50;3.27;;;2.97;;
16640;SDS011;8434;47.990;7.880;2022-11-15T08:58:35;5.03;;;3.23;;
16640;SDS011;8434;47.990;7.880;2022-11-15T09:01:20;4.90;;;3.17;;
16640;SDS011;8434;47.990;7.880;2022-11-15T09:04:06;4.83;;;3.60;;
16640;SDS011;8434;47.990;7.880;2022-11-15T09:06:51;4.87;;;3.27;;
16640;SDS011;8434;47.990;7.880;2022-11-15T09:09:38;5.00;;;3.00;;
16640;SDS011;8434;47.990;7.880;2022-11-15T09:12:22;5.47;;;3.00;;
16640;SDS011;8434;47.990;7.880;2022-11-15T09:15:08;4.57;;;3.50;;
16640;SDS011;8434;47.990;7.880;2022-11-15T09:17:53;4.33;;;3.60;;
16640;SDS011;8434;47.990;7.880;2022-11-15T09:20:38;4.20;;;3.27;;
16640;SDS011;8434;47.990;7.880;2022-11-15T09:23:23;3.90;;;3.50;;
16640;SDS011;8434;47.990;7.880;2022-11-15T09:26:10;6.17;;;3.70;;
16640;SDS011;8434;47.990;7.880;2022-11-15T09:28:55;4.77;;;2.47;;
16640;SDS011;8434;47.990;7.880;2022-11-15T09:31:40;5.93;;;4.03;;
16640;SDS011;8434;47.990;7.880;2022-11-15T09:34:25;6.00;;;4.40;;
16640;SDS011;8434;47.990;7.880;2022-11-15T09:37:10;10.63;;;7.30;;
16640;SDS011;8434;47.990;7.880;2022-11-15T09:39:56;14.37;;;9.03;;
16640;SDS011;8434;47.990;7.880;2022-11-15T09:42:48;7.67;;;5.13;;
16640;SDS011;8434;47.990;7.880;2022-11-15T09:45:37;5.83;;;4.10;;
16640;SDS011;8434;47.990;7.880;2022-11-15T09:48:39;3.40;;;3.10;;
16640;SDS011;8434;47.990;7.880;2022-11-15T09:51:28;4.97;;;2.87;;
16640;SDS011;8434;47.990;7.880;2022-11-15T09:54:16;3.93;;;2.70;;
16640;SDS011;8434;47.990;7.880;2022-11-15T09:57:04;3.50;;;3.20;;
16640;SDS011;8434;47.990;7.880;2022-11-15T09:59:58;3.97;;;2.63;;
16640;SDS011;8434;47.990;7.880;2022-11-15T10:02:51;3.90;;;2.83;;
16640;SDS011;8434;47.990;7.880;2022-11-15T10:05:40;4.37;;;3.03;;
16640;SDS011;8434;47.990;7.880;2022-11-15T10:08:35;3.97;;;3.20;;
16640;SDS011;8434;47.990;7.880;2022-11-15T10:11:22;4.10;;;3.03;;
16640;SDS011;8434;47.990;7.880;2022-11-15T10:14:10;2.87;;;2.53;;
16640;SDS011;8434;47.990;7.880;2022-11-15T10:17:08;3.93;;;2.53;;
16640;SDS011;8434;47.990;7.880;2022-11-15T10:19:58;3.63;;;2.27;;
16640;SDS011;8434;47.990;7.880;2022-11-15T10:22:46;3.80;;;3.03;;
16640;SDS011;8434;47.990;7.880;2022-11-15T10:25:32;4.07;;;3.00;;
16640;SDS011;8434;47.990;7.880;2022-11-15T10:28:21;5.13;;;3.20;;
16640;SDS011;8434;47.990;7.880;2022-11-15T10:31:20;4.33;;;3.13;;
16640;SDS011;8434;47.990;7.880;2022-11-15T10:34:10;3.97;;;3.03;;
16640;SDS011;8434;47.990;7.880;2022-11-15T10:36:57;5.63;;;2.73;;
16640;SDS011;8434;47.990;7.880;2022-11-15T10:39:42;5.53;;;2.90;;
16640;SDS011;8434;47.990;7.880;2022-11-15T10:42:28;4.17;;;2.77;;
16640;SDS011;8434;47.990;7.880;2022-11-15T10:45:24;3.93;;;2.80;;
16640;SDS011;8434;47.990;7.880;2022-11-15T10:48:23;4.60;;;3.47;;
16640;SDS011;8434;47.990;7.880;2022-11-15T10:51:17;3.90;;;3.07;;
16640;SDS011;8434;47.990;7.880;2022-11-15T10:54:04;4.27;;;3.30;;
16640;SDS011;8434;47.990;7.880;2022-11-15T10:56:51;3.40;;;2.53;;
16640;SDS011;8434;47.990;7.880;2022-11-15T10:59:37;3.27;;;2.77;;
16640;SDS011;8434;47.990;7.880;2022-11-15T11:02:26;3.47;;;2.97;;
16640;SDS011;8434;47.990;7.880;2022-11-15T11:05:25;3.83;;;3.10;;
16640;SDS011;8434;47.990;7.880;2022-11-15T11:08:21;3.60;;;2.83;;
16640;SDS011;8434;47.990;7.880;2022-11-15T11:11:06;5.20;;;3.17;;
16640;SDS011;8434;47.990;7.880;2022-11-15T11:13:52;5.30;;;3.40;;
16640;SDS011;8434;47.990;7.880;2022-11-15T11:16:41;6.07;;;3.13;;
16640;SDS011;8434;47.990;7.880;2022-11-15T11:19:31;2.63;;;2.30;;
16640;SDS011;8434;47.990;7.880;2022-11-15T11:22:22;3.53;;;2.80;;
16640;SDS011;8434;47.990;7.880;2022-11-15T11:25:15;3.13;;;2.10;;
16640;SDS011;8434;47.990;7.880;2022-11-15T11:28:05;4.37;;;2.50;;
16640;SDS011;8434;47.990;7.880;2022-11-15T11:31:00;3.17;;;1.80;;
16640;SDS011;8434;47.990;7.880;2022-11-15T11:33:50;3.20;;;1.50;;
16640;SDS011;8434;47.990;7.880;2022-11-15T11:36:39;2.23;;;1.40;;
16640;SDS011;8434;47.990;7.880;2022-11-15T11:39:27;1.20;;;1.10;;
16640;SDS011;8434;47.990;7.880;2022-11-15T11:42:21;1.70;;;1.00;;
16640;SDS011;8434;47.990;7.880;2022-11-15T11:45:14;1.17;;;1.07;;
16640;SDS011;8434;47.990;7.880;2022-11-15T11:48:03;3.50;;;2.30;;
16640;SDS011;8434;47.990;7.880;2022-11-15T11:51:03;2.70;;;1.63;;
16640;SDS011;8434;47.990;7.880;2022-11-15T11:53:52;1.40;;;1.30;;
16640;SDS011;8434;47.990;7.880;2022-11-15T11:56:39;1.17;;;0.97;;
16640;SDS011;8434;47.990;7.880;2022-11-15T11:59:28;1.07;;;0.90;;
16640;SDS011;8434;47.990;7.880;2022-11-15T12:02:28;1.30;;;1.00;;
16640;SDS011;8434;47.990;7.880;2022-11-15T12:05:17;2.40;;;0.77;;
16640;SDS011;8434;47.990;7.880;2022-11-15T12:08:17;1.60;;;0.73;;
16640;SDS011;8434;47.990;7.880;2022-11-15T12:11:08;0.80;;;0.50;;
16640;SDS011;8434;47.990;7.880;2022-11-15T12:13:56;0.70;;;0.70;;
16640;SDS011;8434;47.990;7.880;2022-11-15T12:16:44;0.70;;;0.47;;
16640;SDS011;8434;47.990;7.880;2022-11-15T12:19:29;1.03;;;0.83;;
16640;SDS011;8434;47.990;7.880;2022-11-15T12:22:16;0.97;;;0.73;;
16640;SDS011;8434;47.990;7.880;2022-11-15T12:25:05;0.60;;;0.60;;
16640;SDS011;8434;47.990;7.880;2022-11-15T12:27:53;1.90;;;1.33;;
16640;SDS011;8434;47.990;7.880;2022-11-15T12:30:42;2.13;;;1.40;;
16640;SDS011;8434;47.990;7.880;2022-11-15T12:33:33;1.97;;;1.03;;
16640;SDS011;8434;47.990;7.880;2022-11-15T12:36:35;2.33;;;1.00;;
16640;SDS011;8434;47.990;7.880;2022-11-15T12:39:25;1.03;;;0.73;;
16640;SDS011;8434;47.990;7.880;2022-11-15T12:42:39;1.63;;;0.90;;
16640;SDS011;8434;47.990;7.880;2022-11-15T12:45:26;2.20;;;1.10;;
16640;SDS011;8434;47.990;7.880;2022-11-15T12:51:18;2.30;;;1.10;;
16640;SDS011;8434;47.990;7.880;2022-11-15T13:00:15;0.73;;;0.73;;
16640;SDS011;8434;47.990;7.880;2022-11-15T13:03:18;0.87;;;0.80;;
16640;SDS011;8434;47.990;7.880;2022-11-15T13:06:08;2.17;;;1.13;;
16640;SDS011;8434;47.990;7.880;2022-11-15T13:08:55;2.20;;;0.97;;
16640;SDS011;8434;47.990;7.880;2022-11-15T13:11:44;0.90;;;0.87;;
16640;SDS011;8434;47.990;7.880;2022-11-15T13:14:46;1.73;;;1.00;;
16640;SDS011;8434;47.990;7.880;2022-11-15T13:17:35;1.77;;;1.10;;
16640;SDS011;8434;47.990;7.880;2022-11-15T13:20:27;2.70;;;1.10;;
16640;SDS011;8434;47.990;7.880;2022-11-15T13:23:13;1.23;;;1.00;;
16640;SDS011;8434;47.990;7.880;2022-11-15T13:26:11;1.30;;;1.10;;
16640;SDS011;8434;47.990;7.880;2022-11-15T13:28:57;1.20;;;0.90;;
16640;SDS011;8434;47.990;7.880;2022-11-15T13:31:43;1.20;;;0.93;;
16640;SDS011;8434;47.990;7.880;2022-11-15T13:34:29;1.03;;;0.70;;
16640;SDS011;8434;47.990;7.880;2022-11-15T13:37:28;2.90;;;1.10;;
16640;SDS011;8434;47.990;7.880;2022-11-15T13:40:25;2.60;;;1.10;;
16640;SDS011;8434;47.990;7.880;2022-11-15T13:43:17;1.90;;;1.10;;
16640;SDS011;8434;47.990;7.880;2022-11-15T13:46:10;1.50;;;0.90;;
16640;SDS011;8434;47.990;7.880;2022-11-15T13:48:56;2.13;;;0.90;;
16640;SDS011;8434;47.990;7.880;2022-11-15T13:51:42;0.73;;;0.63;;
16640;SDS011;8434;47.990;7.880;2022-11-15T13:54:29;1.77;;;0.80;;
16640;SDS011;8434;47.990;7.880;2022-11-15T13:57:16;2.20;;;0.90;;
16640;SDS011;8434;47.990;7.880;2022-11-15T14:00:05;0.83;;;0.70;;
16640;SDS011;8434;47.990;7.880;2022-11-15T14:02:51;0.70;;;0.70;;
16640;SDS011;8434;47.990;7.880;2022-11-15T14:05:36;1.67;;;1.00;;
16640;SDS011;8434;47.990;7.880;2022-11-15T14:08:22;1.43;;;0.80;;
16640;SDS011;8434;47.990;7.880;2022-11-15T14:11:08;2.43;;;0.90;;
16640;SDS011;8434;47.990;7.880;2022-11-15T14:14:11;3.23;;;1.20;;
16640;SDS011;8434;47.990;7.880;2022-11-15T14:16:59;1.40;;;1.10;;
16640;SDS011;8434;47.990;7.880;2022-11-15T14:19:44;1.80;;;1.00;;
16640;SDS011;8434;47.990;7.880;2022-11-15T14:22:29;2.13;;;1.33;;
16640;SDS011;8434;47.990;7.880;2022-11-15T14:25:16;2.43;;;1.37;;
16640;SDS011;8434;47.990;7.880;2022-11-15T14:28:13;2.03;;;1.40;;
16640;SDS011;8434;47.990;7.880;2022-11-15T14:30:59;2.03;;;1.10;;
16640;SDS011;8434;47.990;7.880;2022-11-15T14:33:46;0.83;;;0.83;;
16640;SDS011;8434;47.990;7.880;2022-11-15T14:36:31;3.50;;;1.00;;
16640;SDS011;8434;47.990;7.880;2022-11-15T14:39:16;2.40;;;1.00;;
16640;SDS011;8434;47.990;7.880;2022-11-15T14:42:01;0.93;;;0.70;;
16640;SDS011;8434;47.990;7.880;2022-11-15T14:44:45;1.10;;;0.97;;
16640;SDS011;8434;47.990;7.880;2022-11-15T14:47:30;3.87;;;1.20;;
16640;SDS011;8434;47.990;7.880;2022-11-15T14:50:18;2.17;;;0.80;;
16640;SDS011;8434;47.990;7.880;2022-11-15T14:53:03;1.23;;;1.13;;
16640;SDS011;8434;47.990;7.880;2022-11-15T14:55:49;2.73;;;1.77;;
16640;SDS011;8434;47.990;7.880;2022-11-15T14:58:34;3.63;;;2.53;;
16640;SDS011;8434;47.990;7.880;2022-11-15T15:01:21;1.40;;;1.30;;
16640;SDS011;8434;47.990;7.880;2022-11-15T15:04:06;3.57;;;1.80;;
16640;SDS011;8434;47.990;7.880;2022-11-15T15:06:52;3.47;;;2.00;;
16640;SDS011;8434;47.990;7.880;2022-11-15T15:09:37;4.20;;;2.40;;
16640;SDS011;8434;47.990;7.880;2022-11-15T15:12:22;2.87;;;2.23;;
16640;SDS011;8434;47.990;7.880;2022-11-15T15:15:11;4.00;;;2.00;;
16640;SDS011;8434;47.990;7.880;2022-11-15T15:17:57;2.67;;;1.73;;
16640;SDS011;8434;47.990;7.880;2022-11-15T15:20:42;2.07;;;1.70;;
16640;SDS011;8434;47.990;7.880;2022-11-15T15:23:30;2.67;;;1.73;;
16640;SDS011;8434;47.990;7.880;2022-11-15T15:26:15;2.87;;;2.00;;
16640;SDS011;8434;47.990;7.880;2022-11-15T15:29:00;2.40;;;1.60;;
16640;SDS011;8434;47.990;7.880;2022-11-15T15:31:45;2.27;;;1.50;;
16640;SDS011;8434;47.990;7.880;2022-11-15T15:34:30;1.67;;;1.50;;
16640;SDS011;8434;47.990;7.880;2022-11-15T15:37:20;4.43;;;1.73;;
16640;SDS011;8434;47.990;7.880;2022-11-15T15:40:13;2.73;;;1.80;;
16640;SDS011;8434;47.990;7.880;2022-11-15T15:42:58;2.23;;;1.60;;
16640;SDS011;8434;47.990;7.880;2022-11-15T15:45:43;2.80;;;1.90;;
16640;SDS011;8434;47.990;7.880;2022-11-15T15:48:29;4.50;;;1.80;;
16640;SDS011;8434;47.990;7.880;2022-11-15T15:51:17;1.67;;;1.40;;
16640;SDS011;8434;47.990;7.880;2022-11-15T15:54:01;2.50;;;1.50;;
16640;SDS011;8434;47.990;7.880;2022-11-15T15:56:47;3.80;;;2.10;;
16640;SDS011;8434;47.990;7.880;2022-11-15T15:59:32;4.83;;;2.80;;
16640;SDS011;8434;47.990;7.880;2022-11-15T16:02:17;2.80;;;2.00;;
16640;SDS011;8434;47.990;7.880;2022-11-15T16:05:03;3.73;;;1.83;;
16640;SDS011;8434;47.990;7.880;2022-11-15T16:07:48;4.20;;;2.73;;
16640;SDS011;8434;47.990;7.880;2022-11-15T16:10:33;3.60;;;2.30;;
16640;SDS011;8434;47.990;7.880;2022-11-15T16:13:21;4.53;;;1.83;;
16640;SDS011;8434;47.990;7.880;2022-11-15T16:16:07;2.10;;;1.90;;
16640;SDS011;8434;47.990;7.880;2022-11-15T16:18:53;2.93;;;2.03;;
16640;SDS011;8434;47.990;7.880;2022-11-15T16:21:38;1.80;;;1.70;;
16640;SDS011;8434;47.990;7.880;2022-11-15T16:24:22;3.37;;;2.00;;
16640;SDS011;8434;47.990;7.880;2022-11-15T16:27:09;2.07;;;1.73;;
16640;SDS011;8434;47.990;7.880;2022-11-15T16:29:58;2.77;;;1.70;;
16640;SDS011;8434;47.990;7.880;2022-11-15T16:32:46;3.60;;;2.03;;
16640;SDS011;8434;47.990;7.880;2022-11-15T16:35:31;2.63;;;1.70;;
16640;SDS011;8434;47.990;7.880;2022-11-15T16:38:16;4.03;;;1.80;;
16640;SDS011;8434;47.990;7.880;2022-11-15T16:41:02;3.40;;;2.27;;
16640;SDS011;8434;47.990;7.880;2022-11-15T16:43:47;2.70;;;2.30;;
16640;SDS011;8434;47.990;7.880;2022-11-15T16:46:33;4.03;;;2.30;;
16640;SDS011;8434;47.990;7.880;2022-11-15T16:49:18;3.63;;;2.10;;
16640;SDS011;8434;47.990;7.880;2022-11-15T16:52:04;2.73;;;2.20;;
16640;SDS011;8434;47.990;7.880;2022-11-15T16:54:49;5.67;;;2.10;;
16640;SDS011;8434;47.990;7.880;2022-11-15T16:57:34;3.27;;;2.20;;
16640;SDS011;8434;47.990;7.880;2022-11-15T17:00:19;4.03;;;2.33;;
16640;SDS011;8434;47.990;7.880;2022-11-15T17:03:05;3.33;;;1.80;;
16640;SDS011;8434;47.990;7.880;2022-11-15T17:05:51;2.70;;;2.00;;
16640;SDS011;8434;47.990;7.880;2022-11-15T17:08:36;3.37;;;1.80;;
16640;SDS011;8434;47.990;7.880;2022-11-15T17:11:21;3.67;;;2.67;;
16640;SDS011;8434;47.990;7.880;2022-11-15T17:14:06;5.80;;;3.03;;